Terminal Aerodrome Forecast
Issued by NWS Charleston, WV

Current Version | Previous Version | Graphics & Text | Print | Product List | Glossary On
Versions: 1 2 3 4 5 6 7 8 9 10 11 12 13 14 15 16 17 18 19 20 21 22 23 24
000
FTUS41 KRLX 291100
TAFEKN
TAF
KEKN 291120Z 2912/3012 27007KT P6SM SCT015 OVC040
      TEMPO 2912/2915 5SM -SHRA BKN015
     FM291700 30007KT P6SM BKN040
     FM300700 31004KT 5SM BR BKN030
     FM300900 29004KT 1SM BR SCT001 SCT030=

USA.gov is the U.S. government's official web portal to all federal, state and local government web resources and services.